sensor_id;sensor_type;location;lat;lon;timestamp;P1;durP1;ratioP1;P2;durP2;ratioP2
82630;SDS011;72301;52.376;9.738;2024-01-30T00:01:19;4.90;;;1.80;;
82630;SDS011;72301;52.376;9.738;2024-01-30T00:04:29;4.22;;;1.42;;
82630;SDS011;72301;52.376;9.738;2024-01-30T00:07:22;3.88;;;1.42;;
82630;SDS011;72301;52.376;9.738;2024-01-30T00:12:46;4.80;;;1.52;;
82630;SDS011;72301;52.376;9.738;2024-01-30T00:15:15;5.20;;;1.60;;
82630;SDS011;72301;52.376;9.738;2024-01-30T00:17:46;5.18;;;1.63;;
82630;SDS011;72301;52.376;9.738;2024-01-30T00:20:25;3.85;;;1.45;;
82630;SDS011;72301;52.376;9.738;2024-01-30T00:22:56;3.83;;;1.40;;
82630;SDS011;72301;52.376;9.738;2024-01-30T00:25:33;4.45;;;1.65;;
82630;SDS011;72301;52.376;9.738;2024-01-30T00:27:59;4.82;;;1.65;;
82630;SDS011;72301;52.376;9.738;2024-01-30T00:30:33;4.88;;;1.70;;
82630;SDS011;72301;52.376;9.738;2024-01-30T00:33:08;4.22;;;1.50;;
82630;SDS011;72301;52.376;9.738;2024-01-30T00:35:40;4.40;;;1.35;;
82630;SDS011;72301;52.376;9.738;2024-01-30T00:38:12;4.85;;;1.60;;
82630;SDS011;72301;52.376;9.738;2024-01-30T00:40:41;5.30;;;1.48;;
82630;SDS011;72301;52.376;9.738;2024-01-30T00:43:09;4.68;;;1.50;;
82630;SDS011;72301;52.376;9.738;2024-01-30T00:45:38;4.70;;;1.58;;
82630;SDS011;72301;52.376;9.738;2024-01-30T00:48:30;4.10;;;1.38;;
82630;SDS011;72301;52.376;9.738;2024-01-30T00:51:22;4.60;;;1.60;;
82630;SDS011;72301;52.376;9.738;2024-01-30T00:53:54;4.80;;;1.52;;
82630;SDS011;72301;52.376;9.738;2024-01-30T00:56:28;4.00;;;1.40;;
82630;SDS011;72301;52.376;9.738;2024-01-30T00:58:54;5.68;;;1.80;;
82630;SDS011;72301;52.376;9.738;2024-01-30T01:01:29;4.40;;;1.45;;
82630;SDS011;72301;52.376;9.738;2024-01-30T01:03:57;4.18;;;1.33;;
82630;SDS011;72301;52.376;9.738;2024-01-30T01:06:29;4.43;;;1.50;;
82630;SDS011;72301;52.376;9.738;2024-01-30T01:09:18;4.88;;;1.90;;
82630;SDS011;72301;52.376;9.738;2024-01-30T01:12:06;4.57;;;1.60;;
82630;SDS011;72301;52.376;9.738;2024-01-30T01:14:38;4.53;;;1.58;;
82630;SDS011;72301;52.376;9.738;2024-01-30T01:17:09;5.57;;;1.70;;
82630;SDS011;72301;52.376;9.738;2024-01-30T01:19:41;4.55;;;1.80;;
82630;SDS011;72301;52.376;9.738;2024-01-30T01:29:13;4.15;;;1.50;;
82630;SDS011;72301;52.376;9.738;2024-01-30T01:35:44;4.60;;;1.42;;
82630;SDS011;72301;52.376;9.738;2024-01-30T01:41:31;4.47;;;1.60;;
82630;SDS011;72301;52.376;9.738;2024-01-30T01:51:07;4.80;;;1.60;;
82630;SDS011;72301;52.376;9.738;2024-01-30T01:53:50;4.30;;;1.75;;
82630;SDS011;72301;52.376;9.738;2024-01-30T01:57:06;4.40;;;1.58;;
82630;SDS011;72301;52.376;9.738;2024-01-30T02:06:48;3.97;;;1.40;;
82630;SDS011;72301;52.376;9.738;2024-01-30T02:09:47;4.43;;;1.50;;
82630;SDS011;72301;52.376;9.738;2024-01-30T02:13:05;4.40;;;1.52;;
82630;SDS011;72301;52.376;9.738;2024-01-30T02:18:22;4.35;;;1.55;;
82630;SDS011;72301;52.376;9.738;2024-01-30T02:20:53;4.68;;;1.65;;
82630;SDS011;72301;52.376;9.738;2024-01-30T02:23:29;5.03;;;1.70;;
82630;SDS011;72301;52.376;9.738;2024-01-30T02:26:08;4.45;;;1.42;;
82630;SDS011;72301;52.376;9.738;2024-01-30T02:28:42;4.68;;;1.50;;
82630;SDS011;72301;52.376;9.738;2024-01-30T02:31:17;3.20;;;1.15;;
82630;SDS011;72301;52.376;9.738;2024-01-30T02:33:43;4.22;;;1.38;;
82630;SDS011;72301;52.376;9.738;2024-01-30T02:36:17;4.13;;;1.40;;
82630;SDS011;72301;52.376;9.738;2024-01-30T02:38:51;5.00;;;1.60;;
82630;SDS011;72301;52.376;9.738;2024-01-30T02:41:22;4.57;;;1.25;;
82630;SDS011;72301;52.376;9.738;2024-01-30T02:43:54;3.92;;;1.40;;
82630;SDS011;72301;52.376;9.738;2024-01-30T02:46:28;4.40;;;1.38;;
82630;SDS011;72301;52.376;9.738;2024-01-30T02:49:02;5.35;;;1.80;;
82630;SDS011;72301;52.376;9.738;2024-01-30T02:51:37;4.72;;;1.50;;
82630;SDS011;72301;52.376;9.738;2024-01-30T02:54:09;4.47;;;1.40;;
82630;SDS011;72301;52.376;9.738;2024-01-30T02:56:35;4.07;;;1.58;;
82630;SDS011;72301;52.376;9.738;2024-01-30T02:59:07;5.03;;;1.52;;
82630;SDS011;72301;52.376;9.738;2024-01-30T03:02:01;4.95;;;1.60;;
82630;SDS011;72301;52.376;9.738;2024-01-30T03:04:40;4.47;;;1.40;;
82630;SDS011;72301;52.376;9.738;2024-01-30T03:07:34;4.18;;;1.50;;
82630;SDS011;72301;52.376;9.738;2024-01-30T03:10:06;4.60;;;1.50;;
82630;SDS011;72301;52.376;9.738;2024-01-30T03:12:33;4.55;;;1.48;;
82630;SDS011;72301;52.376;9.738;2024-01-30T03:15:31;4.25;;;1.50;;
82630;SDS011;72301;52.376;9.738;2024-01-30T03:18:35;4.75;;;1.50;;
82630;SDS011;72301;52.376;9.738;2024-01-30T03:31:22;3.90;;;1.40;;
82630;SDS011;72301;52.376;9.738;2024-01-30T03:37:07;4.88;;;1.65;;
82630;SDS011;72301;52.376;9.738;2024-01-30T03:39:33;4.68;;;1.60;;
82630;SDS011;72301;52.376;9.738;2024-01-30T03:41:58;4.20;;;1.40;;
82630;SDS011;72301;52.376;9.738;2024-01-30T03:58:02;4.47;;;1.77;;
82630;SDS011;72301;52.376;9.738;2024-01-30T04:07:21;4.32;;;1.55;;
82630;SDS011;72301;52.376;9.738;2024-01-30T04:20:22;4.57;;;1.52;;
82630;SDS011;72301;52.376;9.738;2024-01-30T04:23:03;5.10;;;1.77;;
82630;SDS011;72301;52.376;9.738;2024-01-30T04:29:18;4.63;;;1.77;;
82630;SDS011;72301;52.376;9.738;2024-01-30T04:35:14;4.72;;;1.58;;
82630;SDS011;72301;52.376;9.738;2024-01-30T04:38:08;4.25;;;1.45;;
82630;SDS011;72301;52.376;9.738;2024-01-30T04:44:11;4.00;;;1.40;;
82630;SDS011;72301;52.376;9.738;2024-01-30T04:46:43;4.85;;;1.65;;
82630;SDS011;72301;52.376;9.738;2024-01-30T04:49:36;4.28;;;1.52;;
82630;SDS011;72301;52.376;9.738;2024-01-30T05:02:59;3.85;;;1.30;;
82630;SDS011;72301;52.376;9.738;2024-01-30T05:09:40;5.00;;;1.33;;
82630;SDS011;72301;52.376;9.738;2024-01-30T05:12:14;4.35;;;1.50;;
82630;SDS011;72301;52.376;9.738;2024-01-30T05:14:43;4.05;;;1.45;;
82630;SDS011;72301;52.376;9.738;2024-01-30T05:19:54;4.38;;;1.50;;
82630;SDS011;72301;52.376;9.738;2024-01-30T05:22:25;5.30;;;1.63;;
82630;SDS011;72301;52.376;9.738;2024-01-30T05:24:57;5.07;;;2.03;;
82630;SDS011;72301;52.376;9.738;2024-01-30T05:27:34;4.60;;;1.90;;
82630;SDS011;72301;52.376;9.738;2024-01-30T05:30:08;4.85;;;1.50;;
82630;SDS011;72301;52.376;9.738;2024-01-30T05:32:38;4.20;;;1.40;;
82630;SDS011;72301;52.376;9.738;2024-01-30T05:35:07;4.38;;;1.40;;
82630;SDS011;72301;52.376;9.738;2024-01-30T05:37:39;3.90;;;1.50;;
82630;SDS011;72301;52.376;9.738;2024-01-30T05:40:13;3.58;;;1.30;;
82630;SDS011;72301;52.376;9.738;2024-01-30T05:42:47;5.88;;;1.50;;
82630;SDS011;72301;52.376;9.738;2024-01-30T05:45:18;3.92;;;1.55;;
82630;SDS011;72301;52.376;9.738;2024-01-30T05:50:26;4.85;;;1.50;;
82630;SDS011;72301;52.376;9.738;2024-01-30T05:53:06;4.70;;;1.63;;
82630;SDS011;72301;52.376;9.738;2024-01-30T05:55:42;4.32;;;1.70;;
82630;SDS011;72301;52.376;9.738;2024-01-30T05:58:13;4.47;;;1.52;;
82630;SDS011;72301;52.376;9.738;2024-01-30T06:00:42;4.57;;;1.60;;
82630;SDS011;72301;52.376;9.738;2024-01-30T06:03:13;4.13;;;1.77;;
82630;SDS011;72301;52.376;9.738;2024-01-30T06:05:39;4.45;;;1.50;;
82630;SDS011;72301;52.376;9.738;2024-01-30T06:08:17;4.72;;;1.60;;
82630;SDS011;72301;52.376;9.738;2024-01-30T06:10:54;4.32;;;1.48;;
82630;SDS011;72301;52.376;9.738;2024-01-30T06:13:26;4.32;;;1.60;;
82630;SDS011;72301;52.376;9.738;2024-01-30T06:16:10;4.32;;;1.48;;
82630;SDS011;72301;52.376;9.738;2024-01-30T06:18:39;3.67;;;1.30;;
82630;SDS011;72301;52.376;9.738;2024-01-30T06:21:38;4.25;;;1.52;;
82630;SDS011;72301;52.376;9.738;2024-01-30T06:28:02;4.95;;;1.60;;
82630;SDS011;72301;52.376;9.738;2024-01-30T06:31:02;3.60;;;1.38;;
82630;SDS011;72301;52.376;9.738;2024-01-30T06:34:05;4.32;;;1.58;;
82630;SDS011;72301;52.376;9.738;2024-01-30T06:53:57;4.35;;;1.52;;
82630;SDS011;72301;52.376;9.738;2024-01-30T06:56:51;4.70;;;1.40;;
82630;SDS011;72301;52.376;9.738;2024-01-30T07:13:40;4.30;;;1.50;;
82630;SDS011;72301;52.376;9.738;2024-01-30T07:16:33;3.95;;;1.42;;
82630;SDS011;72301;52.376;9.738;2024-01-30T07:22:00;4.30;;;1.23;;
82630;SDS011;72301;52.376;9.738;2024-01-30T07:24:41;4.43;;;1.60;;
82630;SDS011;72301;52.376;9.738;2024-01-30T07:34:15;4.25;;;1.30;;
82630;SDS011;72301;52.376;9.738;2024-01-30T07:37:30;4.15;;;1.42;;
82630;SDS011;72301;52.376;9.738;2024-01-30T07:44:04;3.55;;;1.40;;
82630;SDS011;72301;52.376;9.738;2024-01-30T07:47:05;4.75;;;1.50;;
82630;SDS011;72301;52.376;9.738;2024-01-30T07:49:54;4.07;;;1.55;;
82630;SDS011;72301;52.376;9.738;2024-01-30T07:52:55;4.40;;;1.60;;
82630;SDS011;72301;52.376;9.738;2024-01-30T08:02:47;4.47;;;1.58;;
82630;SDS011;72301;52.376;9.738;2024-01-30T08:05:32;4.82;;;1.60;;
82630;SDS011;72301;52.376;9.738;2024-01-30T08:08:21;4.43;;;1.50;;
82630;SDS011;72301;52.376;9.738;2024-01-30T08:10:54;4.18;;;1.75;;
82630;SDS011;72301;52.376;9.738;2024-01-30T08:19:54;4.22;;;1.50;;
82630;SDS011;72301;52.376;9.738;2024-01-30T08:25:39;3.85;;;1.48;;
82630;SDS011;72301;52.376;9.738;2024-01-30T08:28:33;4.63;;;1.48;;
82630;SDS011;72301;52.376;9.738;2024-01-30T08:31:01;3.53;;;1.23;;
82630;SDS011;72301;52.376;9.738;2024-01-30T08:33:30;4.13;;;1.58;;
82630;SDS011;72301;52.376;9.738;2024-01-30T08:39:35;3.65;;;1.20;;
82630;SDS011;72301;52.376;9.738;2024-01-30T08:45:40;5.03;;;1.52;;
82630;SDS011;72301;52.376;9.738;2024-01-30T08:49:05;4.60;;;1.67;;
82630;SDS011;72301;52.376;9.738;2024-01-30T09:46:58;5.10;;;1.83;;
82630;SDS011;72301;52.376;9.738;2024-01-30T10:21:13;5.75;;;1.95;;
82630;SDS011;72301;52.376;9.738;2024-01-30T10:30:38;5.50;;;2.30;;
82630;SDS011;72301;52.376;9.738;2024-01-30T10:33:46;5.20;;;1.80;;
82630;SDS011;72301;52.376;9.738;2024-01-30T10:47:28;5.35;;;1.83;;
82630;SDS011;72301;52.376;9.738;2024-01-30T10:50:39;5.07;;;1.70;;
82630;SDS011;72301;52.376;9.738;2024-01-30T10:53:17;4.90;;;1.60;;
82630;SDS011;72301;52.376;9.738;2024-01-30T10:59:38;5.22;;;1.70;;
82630;SDS011;72301;52.376;9.738;2024-01-30T11:05:41;4.53;;;1.52;;
82630;SDS011;72301;52.376;9.738;2024-01-30T11:08:32;5.72;;;1.98;;
82630;SDS011;72301;52.376;9.738;2024-01-30T11:11:04;6.03;;;1.75;;
82630;SDS011;72301;52.376;9.738;2024-01-30T11:38:21;5.25;;;1.70;;
82630;SDS011;72301;52.376;9.738;2024-01-30T11:41:13;6.65;;;1.73;;
82630;SDS011;72301;52.376;9.738;2024-01-30T11:50:46;4.60;;;1.60;;
82630;SDS011;72301;52.376;9.738;2024-01-30T12:11:45;6.72;;;1.75;;
82630;SDS011;72301;52.376;9.738;2024-01-30T12:14:16;4.72;;;1.60;;
82630;SDS011;72301;52.376;9.738;2024-01-30T12:16:50;4.80;;;1.83;;
82630;SDS011;72301;52.376;9.738;2024-01-30T12:19:27;4.90;;;1.65;;
82630;SDS011;72301;52.376;9.738;2024-01-30T12:21:59;5.85;;;2.13;;
82630;SDS011;72301;52.376;9.738;2024-01-30T12:24:33;5.68;;;2.00;;
82630;SDS011;72301;52.376;9.738;2024-01-30T12:27:11;6.25;;;2.60;;
82630;SDS011;72301;52.376;9.738;2024-01-30T12:29:48;6.80;;;2.30;;
82630;SDS011;72301;52.376;9.738;2024-01-30T12:32:23;5.40;;;2.10;;
82630;SDS011;72301;52.376;9.738;2024-01-30T12:34:56;5.68;;;1.88;;
82630;SDS011;72301;52.376;9.738;2024-01-30T12:37:45;6.10;;;2.65;;
82630;SDS011;72301;52.376;9.738;2024-01-30T12:40:23;6.80;;;1.88;;
82630;SDS011;72301;52.376;9.738;2024-01-30T12:42:52;5.78;;;1.92;;
82630;SDS011;72301;52.376;9.738;2024-01-30T12:45:23;5.80;;;2.33;;
82630;SDS011;72301;52.376;9.738;2024-01-30T12:47:59;5.78;;;1.85;;
82630;SDS011;72301;52.376;9.738;2024-01-30T12:50:36;5.60;;;2.10;;
82630;SDS011;72301;52.376;9.738;2024-01-30T12:53:08;5.53;;;2.20;;
82630;SDS011;72301;52.376;9.738;2024-01-30T12:55:48;6.03;;;1.73;;
82630;SDS011;72301;52.376;9.738;2024-01-30T12:58:22;5.10;;;1.88;;
82630;SDS011;72301;52.376;9.738;2024-01-30T13:00:48;5.95;;;2.00;;
82630;SDS011;72301;52.376;9.738;2024-01-30T13:03:26;4.72;;;1.80;;
82630;SDS011;72301;52.376;9.738;2024-01-30T13:05:55;5.65;;;1.85;;
82630;SDS011;72301;52.376;9.738;2024-01-30T13:08:51;5.05;;;1.70;;
82630;SDS011;72301;52.376;9.738;2024-01-30T13:11:28;5.45;;;1.92;;
82630;SDS011;72301;52.376;9.738;2024-01-30T13:14:06;5.20;;;1.55;;
82630;SDS011;72301;52.376;9.738;2024-01-30T13:16:39;4.93;;;1.90;;
82630;SDS011;72301;52.376;9.738;2024-01-30T13:19:10;5.93;;;1.92;;
82630;SDS011;72301;52.376;9.738;2024-01-30T13:21:44;5.45;;;1.80;;
82630;SDS011;72301;52.376;9.738;2024-01-30T13:24:29;6.10;;;2.00;;
82630;SDS011;72301;52.376;9.738;2024-01-30T13:27:04;5.10;;;2.00;;
82630;SDS011;72301;52.376;9.738;2024-01-30T13:29:38;5.97;;;2.13;;
82630;SDS011;72301;52.376;9.738;2024-01-30T13:32:04;5.68;;;2.13;;
82630;SDS011;72301;52.376;9.738;2024-01-30T13:34:40;5.75;;;2.10;;
82630;SDS011;72301;52.376;9.738;2024-01-30T13:37:19;5.63;;;1.92;;
82630;SDS011;72301;52.376;9.738;2024-01-30T13:40:08;4.78;;;1.80;;
82630;SDS011;72301;52.376;9.738;2024-01-30T13:42:40;4.97;;;2.00;;
82630;SDS011;72301;52.376;9.738;2024-01-30T13:45:31;5.28;;;1.98;;
82630;SDS011;72301;52.376;9.738;2024-01-30T13:48:03;5.10;;;1.85;;
82630;SDS011;72301;52.376;9.738;2024-01-30T13:57:44;5.30;;;1.95;;
82630;SDS011;72301;52.376;9.738;2024-01-30T14:00:27;10.68;;;2.63;;
82630;SDS011;72301;52.376;9.738;2024-01-30T14:03:26;4.32;;;1.60;;
82630;SDS011;72301;52.376;9.738;2024-01-30T14:06:35;5.05;;;1.70;;
82630;SDS011;72301;52.376;9.738;2024-01-30T14:12:49;5.82;;;2.08;;
82630;SDS011;72301;52.376;9.738;2024-01-30T14:15:43;4.85;;;1.83;;
82630;SDS011;72301;52.376;9.738;2024-01-30T14:24:40;5.45;;;2.20;;
82630;SDS011;72301;52.376;9.738;2024-01-30T14:31:09;5.00;;;1.90;;
82630;SDS011;72301;52.376;9.738;2024-01-30T14:33:44;4.32;;;1.50;;
82630;SDS011;72301;52.376;9.738;2024-01-30T14:36:20;5.90;;;1.88;;
82630;SDS011;72301;52.376;9.738;2024-01-30T14:43:14;4.97;;;1.85;;
82630;SDS011;72301;52.376;9.738;2024-01-30T15:10:16;5.57;;;1.90;;
82630;SDS011;72301;52.376;9.738;2024-01-30T15:30:49;5.40;;;1.63;;
82630;SDS011;72301;52.376;9.738;2024-01-30T15:36:49;5.45;;;1.90;;
82630;SDS011;72301;52.376;9.738;2024-01-30T15:39:55;5.53;;;1.90;;
82630;SDS011;72301;52.376;9.738;2024-01-30T15:45:58;5.70;;;1.80;;
82630;SDS011;72301;52.376;9.738;2024-01-30T15:48:59;6.95;;;2.30;;
82630;SDS011;72301;52.376;9.738;2024-01-30T15:54:04;4.78;;;1.70;;
82630;SDS011;72301;52.376;9.738;2024-01-30T16:00:33;6.72;;;2.60;;
82630;SDS011;72301;52.376;9.738;2024-01-30T16:03:39;7.57;;;2.50;;
82630;SDS011;72301;52.376;9.738;2024-01-30T16:06:22;6.03;;;2.20;;
82630;SDS011;72301;52.376;9.738;2024-01-30T16:12:09;7.88;;;2.72;;
82630;SDS011;72301;52.376;9.738;2024-01-30T16:15:18;7.18;;;3.70;;
82630;SDS011;72301;52.376;9.738;2024-01-30T16:17:59;6.78;;;3.00;;
82630;SDS011;72301;52.376;9.738;2024-01-30T16:20:57;7.10;;;2.90;;
82630;SDS011;72301;52.376;9.738;2024-01-30T16:23:40;6.15;;;2.63;;
82630;SDS011;72301;52.376;9.738;2024-01-30T16:26:20;7.22;;;2.70;;
82630;SDS011;72301;52.376;9.738;2024-01-30T16:32:35;7.88;;;3.30;;
82630;SDS011;72301;52.376;9.738;2024-01-30T16:35:12;6.50;;;3.03;;
82630;SDS011;72301;52.376;9.738;2024-01-30T16:38:03;7.95;;;3.30;;
82630;SDS011;72301;52.376;9.738;2024-01-30T16:40:56;7.82;;;3.67;;
82630;SDS011;72301;52.376;9.738;2024-01-30T16:43:32;9.40;;;4.13;;
82630;SDS011;72301;52.376;9.738;2024-01-30T16:50:16;7.78;;;3.90;;
82630;SDS011;72301;52.376;9.738;2024-01-30T16:52:57;8.30;;;3.92;;
82630;SDS011;72301;52.376;9.738;2024-01-30T16:55:26;9.35;;;3.83;;
82630;SDS011;72301;52.376;9.738;2024-01-30T16:58:07;10.63;;;3.92;;
82630;SDS011;72301;52.376;9.738;2024-01-30T17:03:55;7.97;;;3.92;;
82630;SDS011;72301;52.376;9.738;2024-01-30T17:07:05;10.63;;;3.65;;
82630;SDS011;72301;52.376;9.738;2024-01-30T17:09:33;10.15;;;3.90;;
82630;SDS011;72301;52.376;9.738;2024-01-30T17:12:16;10.25;;;4.30;;
82630;SDS011;72301;52.376;9.738;2024-01-30T17:14:53;8.73;;;5.05;;
82630;SDS011;72301;52.376;9.738;2024-01-30T17:17:43;8.50;;;4.43;;
82630;SDS011;72301;52.376;9.738;2024-01-30T17:20:12;9.35;;;4.20;;
82630;SDS011;72301;52.376;9.738;2024-01-30T17:22:53;10.38;;;5.57;;
82630;SDS011;72301;52.376;9.738;2024-01-30T17:25:30;9.55;;;4.13;;
82630;SDS011;72301;52.376;9.738;2024-01-30T17:55:12;10.57;;;4.82;;
82630;SDS011;72301;52.376;9.738;2024-01-30T17:58:46;9.98;;;4.40;;
82630;SDS011;72301;52.376;9.738;2024-01-30T18:04:27;8.82;;;4.75;;
82630;SDS011;72301;52.376;9.738;2024-01-30T18:33:38;9.85;;;4.28;;
82630;SDS011;72301;52.376;9.738;2024-01-30T18:36:14;8.55;;;4.03;;
82630;SDS011;72301;52.376;9.738;2024-01-30T18:46:06;9.68;;;4.05;;
82630;SDS011;72301;52.376;9.738;2024-01-30T18:48:51;8.05;;;4.13;;
82630;SDS011;72301;52.376;9.738;2024-01-30T18:51:56;10.45;;;4.13;;
82630;SDS011;72301;52.376;9.738;2024-01-30T19:00:37;8.98;;;4.70;;
82630;SDS011;72301;52.376;9.738;2024-01-30T19:06:37;9.35;;;4.32;;
82630;SDS011;72301;52.376;9.738;2024-01-30T19:09:51;8.93;;;4.72;;
82630;SDS011;72301;52.376;9.738;2024-01-30T19:13:01;8.13;;;3.88;;
82630;SDS011;72301;52.376;9.738;2024-01-30T19:22:47;8.70;;;4.03;;
82630;SDS011;72301;52.376;9.738;2024-01-30T19:25:22;9.15;;;3.83;;
82630;SDS011;72301;52.376;9.738;2024-01-30T19:28:11;8.57;;;4.25;;
82630;SDS011;72301;52.376;9.738;2024-01-30T19:38:12;9.38;;;4.50;;
82630;SDS011;72301;52.376;9.738;2024-01-30T19:41:18;8.00;;;3.35;;
82630;SDS011;72301;52.376;9.738;2024-01-30T19:43:55;7.95;;;3.58;;
82630;SDS011;72301;52.376;9.738;2024-01-30T19:47:02;8.75;;;3.80;;
82630;SDS011;72301;52.376;9.738;2024-01-30T19:53:41;8.23;;;4.18;;
82630;SDS011;72301;52.376;9.738;2024-01-30T19:56:10;7.40;;;3.35;;
82630;SDS011;72301;52.376;9.738;2024-01-30T19:58:36;7.00;;;3.20;;
82630;SDS011;72301;52.376;9.738;2024-01-30T20:01:01;8.40;;;4.00;;
82630;SDS011;72301;52.376;9.738;2024-01-30T20:03:49;8.52;;;3.70;;
82630;SDS011;72301;52.376;9.738;2024-01-30T20:08:54;7.65;;;3.38;;
82630;SDS011;72301;52.376;9.738;2024-01-30T20:11:20;8.90;;;3.70;;
82630;SDS011;72301;52.376;9.738;2024-01-30T20:13:45;7.88;;;4.18;;
82630;SDS011;72301;52.376;9.738;2024-01-30T20:16:12;9.63;;;4.05;;
82630;SDS011;72301;52.376;9.738;2024-01-30T20:18:40;8.05;;;3.80;;
82630;SDS011;72301;52.376;9.738;2024-01-30T20:21:06;8.63;;;3.65;;
82630;SDS011;72301;52.376;9.738;2024-01-30T20:23:32;8.23;;;3.40;;
82630;SDS011;72301;52.376;9.738;2024-01-30T20:25:58;9.80;;;3.72;;
82630;SDS011;72301;52.376;9.738;2024-01-30T20:28:24;7.30;;;3.60;;
82630;SDS011;72301;52.376;9.738;2024-01-30T20:30:52;8.80;;;4.20;;
82630;SDS011;72301;52.376;9.738;2024-01-30T20:33:18;8.30;;;3.60;;
82630;SDS011;72301;52.376;9.738;2024-01-30T20:35:43;9.75;;;3.58;;
82630;SDS011;72301;52.376;9.738;2024-01-30T20:38:09;7.00;;;3.30;;
82630;SDS011;72301;52.376;9.738;2024-01-30T20:40:35;7.85;;;4.60;;
82630;SDS011;72301;52.376;9.738;2024-01-30T20:43:00;8.15;;;3.40;;
82630;SDS011;72301;52.376;9.738;2024-01-30T20:45:26;9.02;;;3.50;;
82630;SDS011;72301;52.376;9.738;2024-01-30T20:47:52;8.15;;;3.45;;
82630;SDS011;72301;52.376;9.738;2024-01-30T20:50:17;7.60;;;3.55;;
82630;SDS011;72301;52.376;9.738;2024-01-30T20:52:43;8.23;;;3.33;;
82630;SDS011;72301;52.376;9.738;2024-01-30T20:55:08;9.63;;;3.58;;
82630;SDS011;72301;52.376;9.738;2024-01-30T20:57:34;8.45;;;3.72;;
82630;SDS011;72301;52.376;9.738;2024-01-30T21:00:00;7.88;;;3.47;;
82630;SDS011;72301;52.376;9.738;2024-01-30T21:02:26;7.65;;;3.67;;
82630;SDS011;72301;52.376;9.738;2024-01-30T21:04:55;8.30;;;3.40;;
82630;SDS011;72301;52.376;9.738;2024-01-30T21:07:20;8.15;;;3.50;;
82630;SDS011;72301;52.376;9.738;2024-01-30T21:09:46;8.68;;;3.70;;
82630;SDS011;72301;52.376;9.738;2024-01-30T21:12:12;7.93;;;3.63;;
82630;SDS011;72301;52.376;9.738;2024-01-30T21:14:37;8.18;;;3.50;;
82630;SDS011;72301;52.376;9.738;2024-01-30T21:17:03;10.70;;;3.80;;
82630;SDS011;72301;52.376;9.738;2024-01-30T21:19:29;8.15;;;3.50;;
82630;SDS011;72301;52.376;9.738;2024-01-30T21:21:54;7.72;;;3.20;;
82630;SDS011;72301;52.376;9.738;2024-01-30T21:24:20;7.93;;;4.00;;
82630;SDS011;72301;52.376;9.738;2024-01-30T21:26:47;8.50;;;3.15;;
82630;SDS011;72301;52.376;9.738;2024-01-30T21:29:13;7.85;;;3.50;;
82630;SDS011;72301;52.376;9.738;2024-01-30T21:31:39;9.27;;;3.45;;
82630;SDS011;72301;52.376;9.738;2024-01-30T21:34:04;8.75;;;3.63;;
82630;SDS011;72301;52.376;9.738;2024-01-30T21:36:30;6.93;;;3.15;;
82630;SDS011;72301;52.376;9.738;2024-01-30T21:38:55;7.75;;;3.28;;
82630;SDS011;72301;52.376;9.738;2024-01-30T21:41:21;7.65;;;3.67;;
82630;SDS011;72301;52.376;9.738;2024-01-30T21:43:47;7.40;;;3.35;;
82630;SDS011;72301;52.376;9.738;2024-01-30T21:46:22;9.18;;;3.38;;
82630;SDS011;72301;52.376;9.738;2024-01-30T21:48:48;7.90;;;3.25;;
82630;SDS011;72301;52.376;9.738;2024-01-30T21:51:14;9.02;;;3.10;;
82630;SDS011;72301;52.376;9.738;2024-01-30T21:53:40;6.72;;;2.97;;
82630;SDS011;72301;52.376;9.738;2024-01-30T21:56:05;7.97;;;3.15;;
82630;SDS011;72301;52.376;9.738;2024-01-30T21:58:34;6.78;;;3.08;;
82630;SDS011;72301;52.376;9.738;2024-01-30T22:00:59;7.93;;;3.50;;
82630;SDS011;72301;52.376;9.738;2024-01-30T22:03:25;7.13;;;3.08;;
82630;SDS011;72301;52.376;9.738;2024-01-30T22:05:50;7.45;;;3.17;;
82630;SDS011;72301;52.376;9.738;2024-01-30T22:08:16;6.85;;;3.10;;
82630;SDS011;72301;52.376;9.738;2024-01-30T22:10:42;7.95;;;3.60;;
82630;SDS011;72301;52.376;9.738;2024-01-30T22:13:08;6.93;;;3.17;;
82630;SDS011;72301;52.376;9.738;2024-01-30T22:15:34;7.20;;;2.92;;
82630;SDS011;72301;52.376;9.738;2024-01-30T22:18:02;6.93;;;3.25;;
82630;SDS011;72301;52.376;9.738;2024-01-30T22:20:27;7.25;;;2.90;;
82630;SDS011;72301;52.376;9.738;2024-01-30T22:22:53;6.68;;;2.80;;
82630;SDS011;72301;52.376;9.738;2024-01-30T22:25:19;6.50;;;2.47;;
82630;SDS011;72301;52.376;9.738;2024-01-30T22:27:45;7.00;;;3.15;;
82630;SDS011;72301;52.376;9.738;2024-01-30T22:30:10;6.90;;;3.30;;
82630;SDS011;72301;52.376;9.738;2024-01-30T22:32:36;7.95;;;2.95;;
82630;SDS011;72301;52.376;9.738;2024-01-30T22:35:03;7.53;;;2.95;;
82630;SDS011;72301;52.376;9.738;2024-01-30T22:37:28;7.55;;;3.00;;
82630;SDS011;72301;52.376;9.738;2024-01-30T22:39:54;7.20;;;3.00;;
82630;SDS011;72301;52.376;9.738;2024-01-30T22:42:19;6.00;;;3.10;;
82630;SDS011;72301;52.376;9.738;2024-01-30T22:44:45;7.37;;;2.90;;
82630;SDS011;72301;52.376;9.738;2024-01-30T22:47:13;8.23;;;3.00;;
82630;SDS011;72301;52.376;9.738;2024-01-30T22:49:38;6.80;;;3.13;;
82630;SDS011;72301;52.376;9.738;2024-01-30T22:52:04;7.57;;;3.17;;
82630;SDS011;72301;52.376;9.738;2024-01-30T22:54:29;6.97;;;2.55;;
82630;SDS011;72301;52.376;9.738;2024-01-30T22:56:55;7.30;;;3.08;;
82630;SDS011;72301;52.376;9.738;2024-01-30T22:59:20;6.55;;;2.95;;
82630;SDS011;72301;52.376;9.738;2024-01-30T23:01:46;7.40;;;2.90;;
82630;SDS011;72301;52.376;9.738;2024-01-30T23:04:12;6.78;;;2.80;;
82630;SDS011;72301;52.376;9.738;2024-01-30T23:06:37;6.55;;;2.50;;
82630;SDS011;72301;52.376;9.738;2024-01-30T23:09:03;7.28;;;3.22;;
82630;SDS011;72301;52.376;9.738;2024-01-30T23:11:28;6.82;;;2.85;;
82630;SDS011;72301;52.376;9.738;2024-01-30T23:13:54;7.28;;;3.40;;
82630;SDS011;72301;52.376;9.738;2024-01-30T23:16:20;7.05;;;2.65;;
82630;SDS011;72301;52.376;9.738;2024-01-30T23:18:45;7.33;;;2.70;;
82630;SDS011;72301;52.376;9.738;2024-01-30T23:21:11;6.50;;;2.83;;
82630;SDS011;72301;52.376;9.738;2024-01-30T23:23:39;6.43;;;3.20;;
82630;SDS011;72301;52.376;9.738;2024-01-30T23:26:04;6.45;;;2.97;;
82630;SDS011;72301;52.376;9.738;2024-01-30T23:28:30;7.47;;;2.67;;
82630;SDS011;72301;52.376;9.738;2024-01-30T23:30:56;6.85;;;2.28;;
82630;SDS011;72301;52.376;9.738;2024-01-30T23:33:21;6.55;;;2.83;;
82630;SDS011;72301;52.376;9.738;2024-01-30T23:36:24;6.35;;;2.40;;
82630;SDS011;72301;52.376;9.738;2024-01-30T23:38:50;7.03;;;3.28;;
82630;SDS011;72301;52.376;9.738;2024-01-30T23:41:18;6.75;;;2.70;;
82630;SDS011;72301;52.376;9.738;2024-01-30T23:43:43;6.70;;;2.60;;
82630;SDS011;72301;52.376;9.738;2024-01-30T23:46:09;7.28;;;2.75;;
82630;SDS011;72301;52.376;9.738;2024-01-30T23:48:35;7.05;;;2.83;;
82630;SDS011;72301;52.376;9.738;2024-01-30T23:51:00;7.93;;;2.50;;
82630;SDS011;72301;52.376;9.738;2024-01-30T23:53:26;6.07;;;2.20;;
82630;SDS011;72301;52.376;9.738;2024-01-30T23:55:51;6.00;;;2.50;;
82630;SDS011;72301;52.376;9.738;2024-01-30T23:58:17;6.07;;;2.55;;
